Time;durP1;ratioP1;P1;durP2;ratioP2;P2;SDS_P1;SDS_P2;PMS_P1;PMS_P2;Temp;Humidity;BMP_temperature;BMP_pressure;BME280_temperature;BME280_humidity;BME280_pressure;Samples;Min_cycle;Max_cycle;Signal;HPM_P1;HPM_P2
2023/04/19 00:00:39;;;;;;;13.40;6.50;;;10.70;99.90;;;;;;5097309;28;20036;-72
2023/04/19 00:03:05;;;;;;;13.10;6.50;;;10.60;99.90;;;;;;5095990;28;20058;-72
2023/04/19 00:05:31;;;;;;;14.48;7.05;;;10.80;99.90;;;;;;5097178;28;20040;-72
2023/04/19 00:07:57;;;;;;;10.02;6.00;;;10.80;99.90;;;;;;5095891;28;20040;-72
2023/04/19 00:10:24;;;;;;;10.93;6.35;;;10.60;99.90;;;;;;5097195;28;20085;-72
2023/04/19 00:12:50;;;;;;;10.73;6.90;;;10.50;99.90;;;;;;5097124;28;20394;-72
2023/04/19 00:15:15;;;;;;;11.23;6.32;;;10.50;99.90;;;;;;5096634;28;20080;-73
2023/04/19 00:17:41;;;;;;;13.40;6.88;;;10.50;99.90;;;;;;5097030;28;20345;-72
2023/04/19 00:20:08;;;;;;;11.23;6.47;;;10.50;99.90;;;;;;5097014;28;20116;-71
2023/04/19 00:22:34;;;;;;;12.38;6.38;;;10.40;99.90;;;;;;5096994;28;20036;-70
2023/04/19 00:25:00;;;;;;;12.65;7.22;;;10.40;99.90;;;;;;5096945;28;20432;-71
2023/04/19 00:27:26;;;;;;;13.88;7.20;;;10.30;99.90;;;;;;5096924;28;20040;-71
2023/04/19 00:29:52;;;;;;;12.95;7.18;;;10.30;99.90;;;;;;5096812;28;20047;-71
2023/04/19 00:32:17;;;;;;;12.13;6.88;;;10.30;99.90;;;;;;5096506;28;20119;-71
2023/04/19 00:34:43;;;;;;;12.07;6.97;;;10.20;99.90;;;;;;5096875;28;20043;-72
2023/04/19 00:37:09;;;;;;;13.73;7.40;;;10.30;99.90;;;;;;5096751;28;20044;-71
2023/04/19 00:39:35;;;;;;;13.80;7.35;;;10.10;99.90;;;;;;5097743;28;20046;-71
2023/04/19 00:42:01;;;;;;;14.10;7.05;;;10.30;99.90;;;;;;5101052;28;20036;-71
2023/04/19 00:44:27;;;;;;;13.18;7.68;;;10.20;99.90;;;;;;5100981;28;20044;-71
2023/04/19 00:46:54;;;;;;;13.70;7.57;;;10.10;99.90;;;;;;5101084;28;20044;-71
2023/04/19 00:49:22;;;;;;;15.90;8.38;;;10.10;99.90;;;;;;5100948;28;20364;-70
2023/04/19 00:51:49;;;;;;;14.77;8.70;;;10.20;99.90;;;;;;5100849;28;20075;-71
2023/04/19 00:54:15;;;;;;;13.10;7.70;;;10.10;99.90;;;;;;5100527;28;20047;-70
2023/04/19 00:56:42;;;;;;;13.63;8.15;;;10.00;99.90;;;;;;5100522;28;20040;-71
2023/04/19 00:59:08;;;;;;;16.20;8.60;;;10.20;99.90;;;;;;5100671;28;20142;-71
2023/04/19 01:01:34;;;;;;;15.23;8.65;;;10.10;99.90;;;;;;5099968;28;20402;-71
2023/04/19 01:04:00;;;;;;;19.08;9.32;;;10.10;99.90;;;;;;5100369;28;20088;-71
2023/04/19 01:06:28;;;;;;;15.63;8.65;;;10.20;99.90;;;;;;5100631;28;20081;-71
2023/04/19 01:08:55;;;;;;;15.23;9.52;;;10.20;99.90;;;;;;5100296;28;20082;-71
2023/04/19 01:11:22;;;;;;;16.33;9.45;;;10.40;99.90;;;;;;5100165;28;20040;-71
2023/04/19 01:13:48;;;;;;;21.50;10.50;;;10.30;99.90;;;;;;5099948;28;20056;-71
2023/04/19 01:16:14;;;;;;;16.30;8.85;;;10.30;99.90;;;;;;5099370;28;20063;-71
2023/04/19 01:18:40;;;;;;;14.30;9.10;;;10.20;99.90;;;;;;5100272;28;20047;-71
2023/04/19 01:21:07;;;;;;;16.63;9.90;;;10.30;99.90;;;;;;5100339;28;20040;-72
2023/04/19 01:23:33;;;;;;;21.40;9.80;;;10.20;99.90;;;;;;5100286;28;20039;-71
2023/04/19 01:26:00;;;;;;;20.20;9.90;;;10.30;99.90;;;;;;5099885;28;20374;-71
2023/04/19 01:28:26;;;;;;;18.33;10.27;;;10.40;99.90;;;;;;5100178;28;20040;-71
2023/04/19 01:30:52;;;;;;;19.77;10.57;;;10.40;99.90;;;;;;5100064;28;20123;-72
2023/04/19 01:33:22;;;;;;;19.83;11.35;;;10.40;99.90;;;;;;5099416;28;20118;-71
2023/04/19 01:35:48;;;;;;;20.63;10.93;;;10.30;99.90;;;;;;5100019;28;20089;-71
2023/04/19 01:38:14;;;;;;;18.60;11.07;;;10.20;99.90;;;;;;5099941;28;20046;-71
2023/04/19 01:40:40;;;;;;;19.08;10.95;;;10.20;99.90;;;;;;5099950;28;20306;-71
2023/04/19 01:43:06;;;;;;;21.20;11.57;;;10.00;99.90;;;;;;5099908;28;20042;-72
2023/04/19 01:45:32;;;;;;;19.17;10.55;;;10.00;99.90;;;;;;5099871;28;20039;-71
2023/04/19 01:48:01;;;;;;;18.13;10.70;;;9.90;99.90;;;;;;5099791;28;20035;-71
2023/04/19 01:50:27;;;;;;;20.77;10.13;;;10.00;99.90;;;;;;5099663;28;20117;-71
2023/04/19 01:52:53;;;;;;;18.27;10.40;;;10.00;99.90;;;;;;5099723;28;20043;-71
2023/04/19 01:55:19;;;;;;;21.13;11.23;;;9.90;99.90;;;;;;5099600;28;20040;-72
2023/04/19 01:57:44;;;;;;;18.85;10.75;;;9.90;99.90;;;;;;5099559;28;20126;-72
2023/04/19 02:00:10;;;;;;;19.75;10.50;;;9.70;99.90;;;;;;5099296;28;20460;-72
2023/04/19 02:02:37;;;;;;;17.35;10.32;;;9.70;99.90;;;;;;5099153;28;20047;-72
2023/04/19 02:05:04;;;;;;;18.23;9.60;;;9.70;99.90;;;;;;5099168;28;20414;-72
2023/04/19 02:07:30;;;;;;;19.98;10.68;;;9.60;99.90;;;;;;5099439;28;20051;-72
2023/04/19 02:09:58;;;;;;;21.25;11.23;;;9.70;99.90;;;;;;5099363;28;20048;-71
2023/04/19 02:12:29;;;;;;;17.73;9.88;;;9.60;99.90;;;;;;5099331;28;20048;-71
2023/04/19 02:14:58;;;;;;;16.90;10.05;;;9.60;99.90;;;;;;5098855;28;20052;-71
2023/04/19 02:17:25;;;;;;;18.27;11.00;;;9.60;99.90;;;;;;5099118;28;20048;-71
2023/04/19 02:19:51;;;;;;;16.67;9.75;;;9.50;99.90;;;;;;5098911;28;20425;-72
2023/04/19 02:22:20;;;;;;;14.95;8.85;;;9.40;99.90;;;;;;5099130;28;20115;-71
2023/04/19 02:24:48;;;;;;;18.02;10.73;;;9.50;99.90;;;;;;5098838;28;20081;-71
2023/04/19 02:27:13;;;;;;;15.98;9.27;;;9.60;99.90;;;;;;5099009;28;20040;-71
2023/04/19 02:29:39;;;;;;;17.48;9.73;;;9.50;99.90;;;;;;5098978;28;20040;-71
2023/04/19 02:32:05;;;;;;;16.55;8.93;;;9.60;99.90;;;;;;5098563;28;20047;-71
2023/04/19 02:34:34;;;;;;;19.33;9.05;;;9.60;99.90;;;;;;5098903;28;20044;-71
2023/04/19 02:37:00;;;;;;;16.60;8.50;;;9.30;99.90;;;;;;5097466;28;20404;-71
2023/04/19 02:39:26;;;;;;;15.93;8.85;;;9.30;99.90;;;;;;5098796;28;20036;-72
2023/04/19 02:41:52;;;;;;;16.50;8.27;;;9.20;99.90;;;;;;5097423;28;20425;-71
2023/04/19 02:44:18;;;;;;;15.80;8.20;;;9.20;99.90;;;;;;5098438;28;20039;-71
2023/04/19 02:46:53;;;;;;;14.25;8.05;;;9.20;99.90;;;;;;5098335;28;20036;-71
2023/04/19 02:49:19;;;;;;;17.23;7.57;;;9.30;99.90;;;;;;5098331;28;20032;-71
2023/04/19 02:51:46;;;;;;;17.45;7.72;;;9.20;99.90;;;;;;5098587;28;20084;-71
2023/04/19 02:54:12;;;;;;;14.50;7.50;;;9.20;99.90;;;;;;5098519;28;20321;-71
2023/04/19 02:56:38;;;;;;;11.52;6.53;;;9.20;99.90;;;;;;5098168;28;20036;-72
2023/04/19 02:59:05;;;;;;;9.65;6.30;;;9.30;99.90;;;;;;5098042;28;20047;-72
2023/04/19 03:01:31;;;;;;;15.60;7.32;;;9.30;99.90;;;;;;5097960;28;20032;-72
2023/04/19 03:03:57;;;;;;;14.98;7.45;;;9.30;99.90;;;;;;5097504;28;20125;-72
2023/04/19 03:06:22;;;;;;;14.10;7.05;;;9.30;99.90;;;;;;5098306;28;20032;-72
2023/04/19 03:08:48;;;;;;;12.23;6.25;;;9.40;99.90;;;;;;5097914;28;20054;-72
2023/04/19 03:11:17;;;;;;;15.00;7.28;;;9.30;99.90;;;;;;5097906;28;20048;-72
2023/04/19 03:13:44;;;;;;;12.68;7.28;;;9.20;99.90;;;;;;5097809;28;20054;-72
2023/04/19 03:16:09;;;;;;;14.45;7.28;;;9.10;99.90;;;;;;5097734;28;20080;-71
2023/04/19 03:18:35;;;;;;;12.43;6.63;;;9.00;99.90;;;;;;5097675;28;20087;-71
2023/04/19 03:21:02;;;;;;;15.65;7.22;;;9.00;99.90;;;;;;5096956;28;20127;-71
2023/04/19 03:23:28;;;;;;;11.07;6.45;;;9.10;99.90;;;;;;5097889;28;20108;-71
2023/04/19 03:25:53;;;;;;;14.20;7.32;;;9.00;99.90;;;;;;5097660;28;20135;-71
2023/04/19 03:28:19;;;;;;;13.48;7.15;;;9.10;99.90;;;;;;5097890;28;20044;-71
2023/04/19 03:30:45;;;;;;;14.63;7.47;;;9.00;99.90;;;;;;5097866;28;20043;-71
2023/04/19 03:33:11;;;;;;;14.65;6.90;;;9.00;99.90;;;;;;5097386;28;20416;-71
2023/04/19 03:35:37;;;;;;;18.30;7.47;;;8.90;99.90;;;;;;5097421;28;20048;-71
2023/04/19 03:38:03;;;;;;;12.68;7.07;;;8.90;99.90;;;;;;5097647;28;20040;-71
2023/04/19 03:40:31;;;;;;;12.77;6.85;;;8.90;99.90;;;;;;5097655;28;20046;-71
2023/04/19 03:42:57;;;;;;;14.40;7.18;;;8.90;99.90;;;;;;5097330;28;20040;-71
2023/04/19 03:45:23;;;;;;;15.68;7.65;;;8.90;99.90;;;;;;5096210;28;20101;-71
2023/04/19 03:47:48;;;;;;;15.02;6.95;;;9.00;99.90;;;;;;5097544;28;20040;-71
2023/04/19 03:50:14;;;;;;;13.50;7.32;;;8.80;99.90;;;;;;5097510;28;20051;-71
2023/04/19 03:52:40;;;;;;;18.27;8.00;;;8.90;99.90;;;;;;5097455;28;20058;-71
2023/04/19 03:55:06;;;;;;;13.30;7.20;;;8.80;99.90;;;;;;5096423;28;20123;-71
2023/04/19 03:57:31;;;;;;;13.48;7.40;;;8.80;99.90;;;;;;5097269;28;20044;-72
2023/04/19 03:59:57;;;;;;;14.15;7.32;;;8.70;99.90;;;;;;5097335;28;20101;-72
2023/04/19 04:02:23;;;;;;;12.55;6.90;;;8.70;99.90;;;;;;5095956;28;20106;-72
2023/04/19 04:04:54;;;;;;;12.45;7.05;;;8.60;99.90;;;;;;5097291;28;20040;-72
2023/04/19 04:07:22;;;;;;;14.88;6.50;;;8.60;99.90;;;;;;5094211;28;20042;-73
2023/04/19 04:09:48;;;;;;;12.32;7.00;;;8.50;99.90;;;;;;5075559;28;20044;-73
2023/04/19 04:12:14;;;;;;;10.88;6.53;;;8.40;99.90;;;;;;5076751;28;20067;-72
2023/04/19 04:14:40;;;;;;;15.10;7.07;;;8.50;99.90;;;;;;5075870;28;20357;-72
2023/04/19 04:17:05;;;;;;;11.98;6.53;;;8.60;99.90;;;;;;5076849;28;20044;-72
2023/04/19 04:19:31;;;;;;;12.23;6.75;;;8.60;99.90;;;;;;5076908;28;20044;-72
2023/04/19 04:21:57;;;;;;;12.63;6.85;;;8.50;99.90;;;;;;5075920;28;20313;-72
2023/04/19 04:24:23;;;;;;;13.45;6.75;;;8.40;99.90;;;;;;5076857;28;20044;-72
2023/04/19 04:26:50;;;;;;;11.60;6.35;;;8.50;99.90;;;;;;5076470;28;20032;-73
2023/04/19 04:29:16;;;;;;;12.85;6.28;;;8.40;99.90;;;;;;5076520;28;20413;-72
2023/04/19 04:31:42;;;;;;;12.55;6.40;;;8.40;99.90;;;;;;5076156;28;20089;-73
2023/04/19 04:34:08;;;;;;;14.20;6.50;;;8.40;99.90;;;;;;5076770;28;20036;-73
2023/04/19 04:36:36;;;;;;;15.60;6.47;;;8.50;99.90;;;;;;5076507;28;20036;-72
2023/04/19 04:39:03;;;;;;;10.55;6.35;;;8.40;99.90;;;;;;5076635;28;20295;-72
2023/04/19 04:41:30;;;;;;;11.55;6.28;;;8.50;99.90;;;;;;5076697;28;20037;-73
2023/04/19 04:43:57;;;;;;;12.02;6.22;;;8.40;99.90;;;;;;5076670;28;20040;-72
2023/04/19 04:46:23;;;;;;;12.23;5.85;;;8.30;99.90;;;;;;5076416;28;20033;-72
2023/04/19 04:48:50;;;;;;;15.23;5.80;;;8.40;99.90;;;;;;5077103;28;20041;-72
2023/04/19 04:51:16;;;;;;;10.43;5.88;;;8.30;99.90;;;;;;5076574;28;20033;-72
2023/04/19 04:53:41;;;;;;;10.25;5.38;;;8.20;99.90;;;;;;5076589;28;20097;-72
2023/04/19 04:56:08;;;;;;;11.50;5.97;;;8.10;99.90;;;;;;5076539;28;20340;-73
2023/04/19 04:58:34;;;;;;;12.95;5.68;;;8.20;99.90;;;;;;5076498;28;20044;-73
2023/04/19 05:00:59;;;;;;;14.15;5.65;;;8.20;99.90;;;;;;5075488;28;20047;-73
2023/04/19 05:03:28;;;;;;;8.50;5.28;;;8.20;99.90;;;;;;5075935;28;20322;-72
2023/04/19 05:05:55;;;;;;;12.50;5.40;;;8.30;99.90;;;;;;5076469;28;20028;-72
2023/04/19 05:08:20;;;;;;;10.00;5.45;;;8.40;99.90;;;;;;5075087;28;20410;-72
2023/04/19 05:10:46;;;;;;;11.65;5.25;;;8.40;99.90;;;;;;5076447;28;20051;-72
2023/04/19 05:13:12;;;;;;;11.00;5.28;;;8.40;99.90;;;;;;5076322;28;20037;-72
2023/04/19 05:15:38;;;;;;;13.13;5.45;;;8.40;99.90;;;;;;5076027;28;20052;-72
2023/04/19 05:18:04;;;;;;;9.18;5.22;;;8.50;99.90;;;;;;5076279;28;20032;-73
2023/04/19 05:20:30;;;;;;;10.52;5.25;;;8.60;99.90;;;;;;5076352;28;20112;-72
2023/04/19 05:22:57;;;;;;;9.48;5.38;;;8.60;99.90;;;;;;5092106;28;20120;-72
2023/04/19 05:25:23;;;;;;;10.40;5.07;;;8.60;99.90;;;;;;5075985;28;20032;-72
2023/04/19 05:27:48;;;;;;;11.35;5.07;;;8.70;99.90;;;;;;5079923;28;20043;-72
2023/04/19 05:30:14;;;;;;;10.05;4.47;;;8.80;99.90;;;;;;5079934;28;20038;-72
2023/04/19 05:32:40;;;;;;;7.80;4.85;;;9.00;99.90;;;;;;5079456;28;20028;-72
2023/04/19 05:35:07;;;;;;;10.57;4.82;;;8.80;99.90;;;;;;5079832;28;20044;-72
2023/04/19 05:37:32;;;;;;;7.93;4.30;;;8.80;99.90;;;;;;5079730;28;20040;-72
2023/04/19 05:39:58;;;;;;;10.13;5.38;;;8.80;99.90;;;;;;5079733;28;20033;-72
2023/04/19 05:42:24;;;;;;;14.20;5.18;;;8.90;99.90;;;;;;5079670;28;20107;-73
2023/04/19 05:44:49;;;;;;;10.30;5.38;;;9.10;99.90;;;;;;5079710;28;20068;-72
2023/04/19 05:47:16;;;;;;;6.63;4.55;;;9.20;99.90;;;;;;5078339;28;20354;-72
2023/04/19 05:49:42;;;;;;;10.90;4.72;;;9.10;99.90;;;;;;5078289;28;20417;-72
2023/04/19 05:52:07;;;;;;;11.18;4.70;;;9.20;99.90;;;;;;5078271;28;20043;-72
2023/04/19 05:54:34;;;;;;;8.07;4.20;;;9.00;99.90;;;;;;5079158;28;20033;-72
2023/04/19 05:57:01;;;;;;;11.23;4.20;;;9.10;99.90;;;;;;5079360;28;20063;-72
2023/04/19 05:59:27;;;;;;;10.60;4.35;;;9.00;99.90;;;;;;5079432;28;20044;-72
2023/04/19 06:01:54;;;;;;;9.35;4.55;;;9.00;99.90;;;;;;5078705;28;20070;-72
2023/04/19 06:04:20;;;;;;;7.95;4.40;;;8.80;99.90;;;;;;5079307;28;20032;-72
2023/04/19 06:06:46;;;;;;;12.00;4.75;;;8.90;99.90;;;;;;5079283;28;20046;-72
2023/04/19 06:09:13;;;;;;;7.28;4.03;;;8.90;99.90;;;;;;5079197;28;20040;-72
2023/04/19 06:11:39;;;;;;;7.88;4.00;;;9.00;99.90;;;;;;5079196;28;20098;-72
2023/04/19 06:14:05;;;;;;;8.82;4.28;;;8.90;99.90;;;;;;5078972;28;20305;-72
2023/04/19 06:16:31;;;;;;;8.95;4.10;;;8.80;99.90;;;;;;5079101;28;20041;-72
2023/04/19 06:18:56;;;;;;;9.63;4.45;;;8.90;99.90;;;;;;5078908;28;20428;-72
2023/04/19 06:21:22;;;;;;;8.23;4.50;;;9.00;99.90;;;;;;5078939;28;20402;-72
2023/04/19 06:23:48;;;;;;;7.75;4.25;;;8.90;99.90;;;;;;5078650;28;20074;-72
2023/04/19 06:26:13;;;;;;;10.20;3.85;;;9.10;99.90;;;;;;5078896;28;20064;-72
2023/04/19 06:28:39;;;;;;;10.80;4.70;;;9.10;99.90;;;;;;5078866;28;20029;-72
2023/04/19 06:31:05;;;;;;;10.48;4.45;;;9.20;99.90;;;;;;5078484;28;20036;-68
2023/04/19 06:33:30;;;;;;;9.50;4.43;;;9.20;99.90;;;;;;5078264;28;20038;-67
2023/04/19 06:35:56;;;;;;;9.88;4.40;;;9.20;99.90;;;;;;5078670;28;20040;-67
2023/04/19 06:38:22;;;;;;;7.75;4.40;;;9.20;99.90;;;;;;5078393;28;20036;-68
2023/04/19 06:40:47;;;;;;;8.55;4.25;;;9.10;99.90;;;;;;5098647;28;20058;-68
2023/04/19 06:43:13;;;;;;;9.38;4.25;;;9.20;99.90;;;;;;5092922;28;20031;-70
2023/04/19 06:45:39;;;;;;;9.32;4.70;;;9.20;99.90;;;;;;5095476;28;20111;-69
2023/04/19 06:48:04;;;;;;;8.10;4.60;;;9.30;99.90;;;;;;5091414;28;20040;-69
2023/04/19 06:50:30;;;;;;;14.48;4.38;;;9.50;99.90;;;;;;5076890;28;20167;-69
2023/04/19 06:52:56;;;;;;;9.90;4.20;;;9.70;99.90;;;;;;5078334;28;20097;-69
2023/04/19 06:55:21;;;;;;;7.68;4.28;;;9.70;99.90;;;;;;5078081;28;20037;-69
2023/04/19 06:57:47;;;;;;;7.32;4.03;;;9.80;99.90;;;;;;5078205;28;20043;-68
2023/04/19 07:00:13;;;;;;;7.93;3.85;;;10.00;99.90;;;;;;5078226;28;20036;-69
2023/04/19 07:02:39;;;;;;;6.72;3.47;;;10.10;99.90;;;;;;5077778;28;20028;-69
2023/04/19 07:05:05;;;;;;;7.68;3.67;;;10.00;99.90;;;;;;5078141;28;20486;-69
2023/04/19 07:07:32;;;;;;;7.30;3.63;;;10.10;99.90;;;;;;5076806;28;20352;-69
2023/04/19 07:09:57;;;;;;;7.82;3.65;;;10.30;99.90;;;;;;5078063;28;20068;-69
2023/04/19 07:12:23;;;;;;;6.03;3.10;;;10.40;99.90;;;;;;5078074;28;20070;-69
2023/04/19 07:14:55;;;;;;;8.52;3.20;;;10.40;99.90;;;;;;5077699;28;20048;-68
2023/04/19 07:17:21;;;;;;;6.70;3.20;;;10.40;99.90;;;;;;5093054;28;20119;-68
2023/04/19 07:19:47;;;;;;;7.13;2.97;;;10.60;99.90;;;;;;5077878;28;20044;-68
2023/04/19 07:22:13;;;;;;;5.32;2.80;;;10.60;99.90;;;;;;5077795;28;20067;-68
2023/04/19 07:24:40;;;;;;;9.05;3.90;;;10.70;99.90;;;;;;5093582;28;20060;-68
2023/04/19 07:27:06;;;;;;;4.70;3.13;;;10.80;99.90;;;;;;5077741;28;20037;-68
2023/04/19 07:29:36;;;;;;;7.10;3.08;;;10.80;99.90;;;;;;5093633;28;20033;-68
2023/04/19 07:32:02;;;;;;;5.85;2.83;;;10.70;99.90;;;;;;5092837;28;20325;-68
2023/04/19 07:34:27;;;;;;;5.90;2.78;;;10.70;99.90;;;;;;5077563;28;20032;-68
2023/04/19 07:36:54;;;;;;;7.40;2.85;;;10.80;99.90;;;;;;5076574;28;20032;-76
2023/04/19 07:39:20;;;;;;;4.20;2.22;;;10.80;99.90;;;;;;5077635;28;20115;-69
2023/04/19 07:41:46;;;;;;;4.95;2.53;;;10.90;99.90;;;;;;5077469;28;20067;-68
2023/04/19 07:44:12;;;;;;;6.78;2.45;;;10.80;99.90;;;;;;5077359;28;20040;-68
2023/04/19 07:46:38;;;;;;;3.75;2.20;;;10.80;99.90;;;;;;5092943;28;20036;-68
2023/04/19 07:49:04;;;;;;;7.30;2.50;;;10.90;99.90;;;;;;5077171;28;20043;-68
2023/04/19 07:51:30;;;;;;;5.25;2.70;;;10.90;99.90;;;;;;5075959;28;20318;-68
2023/04/19 07:53:56;;;;;;;5.10;2.65;;;11.00;99.90;;;;;;5076946;28;20047;-68
2023/04/19 07:56:22;;;;;;;7.97;2.75;;;11.10;99.90;;;;;;5077204;28;20079;-68
2023/04/19 07:58:48;;;;;;;5.22;3.05;;;11.20;99.90;;;;;;5077089;28;20068;-68
2023/04/19 08:01:13;;;;;;;4.60;2.63;;;11.20;99.90;;;;;;5077169;28;20367;-68
2023/04/19 08:03:40;;;;;;;5.05;2.50;;;11.30;99.90;;;;;;5075715;28;20036;-68
2023/04/19 08:06:07;;;;;;;3.88;2.30;;;11.50;99.90;;;;;;5077121;28;20108;-68
2023/04/19 08:08:33;;;;;;;6.80;2.55;;;11.50;99.90;;;;;;5077086;28;20086;-68
2023/04/19 08:11:01;;;;;;;6.35;2.72;;;11.60;99.90;;;;;;5077049;28;20050;-68
2023/04/19 08:13:27;;;;;;;5.88;2.28;;;11.70;99.90;;;;;;5076744;28;20424;-68
2023/04/19 08:15:52;;;;;;;5.57;2.58;;;11.70;99.90;;;;;;5076620;28;20092;-68
2023/04/19 08:18:18;;;;;;;3.38;2.20;;;11.50;99.90;;;;;;5092393;28;20079;-68
2023/04/19 08:20:45;;;;;;;5.50;2.53;;;11.60;99.90;;;;;;5076934;28;20028;-68
2023/04/19 08:23:11;;;;;;;4.35;2.42;;;11.80;99.90;;;;;;5076894;28;20033;-68
2023/04/19 08:25:37;;;;;;;6.00;2.42;;;12.00;99.90;;;;;;5076845;28;20044;-68
2023/04/19 08:28:03;;;;;;;5.65;2.40;;;11.90;99.90;;;;;;5076838;28;20071;-66
2023/04/19 08:30:29;;;;;;;4.22;2.03;;;11.90;99.90;;;;;;5076828;28;20032;-67
2023/04/19 08:32:55;;;;;;;5.45;2.30;;;12.20;99.90;;;;;;5076774;28;20291;-67
2023/04/19 08:35:21;;;;;;;5.28;2.05;;;12.30;99.90;;;;;;5076764;28;20044;-67
2023/04/19 08:37:48;;;;;;;4.78;1.85;;;12.50;99.90;;;;;;5076673;28;20040;-67
2023/04/19 08:40:15;;;;;;;3.85;1.95;;;12.50;99.90;;;;;;5076490;28;20032;-66
2023/04/19 08:42:44;;;;;;;4.90;1.70;;;12.60;99.90;;;;;;5076688;28;20040;-67
2023/04/19 08:45:12;;;;;;;5.20;1.40;;;12.80;99.90;;;;;;5076650;28;20044;-66
2023/04/19 08:47:39;;;;;;;2.88;1.75;;;12.90;99.90;;;;;;5076632;28;20047;-67
2023/04/19 08:50:06;;;;;;;3.95;1.90;;;12.80;99.90;;;;;;5076355;28;20425;-67
2023/04/19 08:52:36;;;;;;;3.92;1.88;;;12.70;99.90;;;;;;5076592;28;20051;-68
2023/04/19 08:55:07;;;;;;;4.45;2.10;;;12.80;99.90;;;;;;5076317;28;20485;-67
2023/04/19 08:57:34;;;;;;;6.65;2.03;;;12.80;99.90;;;;;;5092220;28;20041;-72
2023/04/19 09:00:05;;;;;;;4.65;1.88;;;12.90;99.90;;;;;;5076382;28;20409;-67
2023/04/19 09:02:48;;;;;;;4.70;1.67;;;13.00;99.90;;;;;;5080029;28;20036;-67
2023/04/19 09:05:16;;;;;;;5.35;1.67;;;13.20;99.90;;;;;;5079516;28;20093;-69
2023/04/19 09:07:48;;;;;;;3.97;1.63;;;13.30;99.90;;;;;;5080502;28;20108;-70
2023/04/19 09:10:19;;;;;;;2.63;1.40;;;13.10;99.90;;;;;;5080391;28;20036;-67
2023/04/19 09:13:04;;;;;;;3.80;1.42;;;12.90;99.90;;;;;;5080361;28;20051;-68
2023/04/19 09:15:38;;;;;;;2.10;1.20;;;13.10;99.90;;;;;;5079934;28;20047;-67
2023/04/19 09:18:09;;;;;;;4.03;1.35;;;13.40;99.90;;;;;;5080093;28;20044;-67
2023/04/19 09:20:45;;;;;;;3.22;1.30;;;13.70;99.90;;;;;;5080214;28;20121;-68
2023/04/19 09:23:14;;;;;;;4.97;1.25;;;13.70;99.90;;;;;;5079854;28;20032;-68
2023/04/19 09:25:52;;;;;;;2.95;1.67;;;13.60;99.90;;;;;;5079747;28;20356;-68
2023/04/19 09:28:18;;;;;;;4.57;1.50;;;13.50;99.90;;;;;;5080097;28;20351;-68
2023/04/19 09:30:44;;;;;;;3.08;1.50;;;13.70;99.90;;;;;;5079937;28;20033;-68
2023/04/19 09:33:09;;;;;;;1.92;1.38;;;14.00;99.90;;;;;;5078286;28;20037;-69
2023/04/19 09:35:48;;;;;;;4.40;2.28;;;14.00;99.90;;;;;;5095573;28;20036;-68
2023/04/19 09:38:15;;;;;;;3.28;1.10;;;14.10;99.90;;;;;;5079739;28;20039;-68
2023/04/19 09:40:41;;;;;;;3.35;1.40;;;14.00;99.90;;;;;;5079505;28;20115;-67
2023/04/19 09:43:07;;;;;;;3.63;1.20;;;14.20;99.90;;;;;;5062059;28;20321;-68
2023/04/19 09:45:41;;;;;;;3.42;1.27;;;14.40;99.90;;;;;;5078969;28;20040;-68
2023/04/19 09:48:08;;;;;;;8.82;1.50;;;14.70;99.90;;;;;;5079612;28;20044;-69
2023/04/19 09:50:35;;;;;;;2.75;0.93;;;14.60;99.90;;;;;;5078540;28;20124;-68
2023/04/19 09:53:02;;;;;;;2.78;1.10;;;14.70;99.90;;;;;;5078247;28;20357;-68
2023/04/19 09:55:28;;;;;;;8.32;1.30;;;14.70;99.90;;;;;;5061599;28;20068;-67
2023/04/19 09:57:54;;;;;;;1.98;1.10;;;14.70;99.90;;;;;;5079445;28;20072;-69
2023/04/19 10:00:21;;;;;;;2.92;0.85;;;14.90;99.90;;;;;;5095395;28;20033;-69
2023/04/19 10:02:56;;;;;;;2.53;1.05;;;15.00;99.90;;;;;;5078856;28;20432;-68
2023/04/19 10:05:24;;;;;;;3.80;1.10;;;15.20;99.90;;;;;;5078319;28;20411;-73
2023/04/19 10:07:51;;;;;;;3.55;1.00;;;15.30;99.90;;;;;;5078096;28;20078;-70
2023/04/19 10:10:17;;;;;;;6.03;1.02;;;15.20;99.90;;;;;;5079247;28;20040;-68
2023/04/19 10:12:50;;;;;;;3.22;1.20;;;15.30;99.90;;;;;;5077903;28;20032;-68
2023/04/19 10:15:17;;;;;;;2.50;0.95;;;15.40;99.90;;;;;;5078570;28;20449;-68
2023/04/19 10:17:42;;;;;;;2.65;1.23;;;15.50;99.90;;;;;;5077817;28;20052;-71
2023/04/19 10:20:16;;;;;;;3.67;1.05;;;15.80;99.90;;;;;;5089137;28;20024;-70
2023/04/19 10:22:42;;;;;;;2.13;1.13;;;15.60;99.90;;;;;;5099015;28;20032;-70
2023/04/19 10:25:13;;;;;;;3.55;1.13;;;15.50;99.90;;;;;;5097829;28;20051;-70
2023/04/19 10:27:44;;;;;;;3.90;0.93;;;15.60;99.90;;;;;;5098856;28;20055;-71
2023/04/19 10:30:25;;;;;;;5.43;1.30;;;15.50;99.90;;;;;;5089738;28;20040;-70
2023/04/19 10:32:59;;;;;;;1.58;0.80;;;15.70;99.90;;;;;;5077720;28;20505;-71
2023/04/19 10:35:36;;;;;;;1.77;0.80;;;15.90;99.90;;;;;;5060412;28;20056;-71
2023/04/19 10:38:05;;;;;;;1.40;0.90;;;15.80;99.90;;;;;;5078373;28;20048;-70
2023/04/19 10:40:54;;;;;;;3.90;0.90;;;15.80;99.90;;;;;;5110034;28;20048;-74
2023/04/19 10:43:21;;;;;;;2.13;0.88;;;15.80;99.90;;;;;;5098484;28;20077;-70
2023/04/19 10:45:47;;;;;;;1.25;0.70;;;16.10;99.90;;;;;;5080599;28;20061;-70
2023/04/19 10:48:34;;;;;;;1.35;0.60;;;16.30;99.90;;;;;;5097485;28;20047;-69
2023/04/19 10:51:17;;;;;;;2.88;0.88;;;16.50;99.90;;;;;;5098710;28;20052;-71
2023/04/19 10:53:55;;;;;;;3.58;1.00;;;16.70;99.90;;;;;;5098376;28;20048;-70
2023/04/19 10:56:33;;;;;;;2.28;0.82;;;16.80;99.90;;;;;;5098595;28;20097;-71
2023/04/19 10:59:10;;;;;;;2.90;1.20;;;17.00;99.90;;;;;;5097473;28;20124;-70
2023/04/19 11:01:42;;;;;;;2.97;0.95;;;17.20;99.90;;;;;;5098215;28;20416;-67
2023/04/19 11:04:08;;;;;;;3.08;0.85;;;17.10;99.90;;;;;;5098083;28;20036;-66
2023/04/19 11:06:55;;;;;;;3.10;1.52;;;17.10;99.90;;;;;;5098333;28;20115;-68
2023/04/19 11:09:44;;;;;;;2.28;0.85;;;17.30;99.90;;;;;;5098339;28;20040;-69
2023/04/19 11:12:14;;;;;;;3.55;1.00;;;17.30;99.90;;;;;;5083891;28;20418;-70
2023/04/19 11:14:45;;;;;;;4.18;0.90;;;17.40;99.90;;;;;;5086292;28;20083;-70
2023/04/19 11:17:19;;;;;;;3.47;1.00;;;17.70;99.90;;;;;;5077830;28;20365;-70
2023/04/19 11:20:05;;;;;;;4.43;0.82;;;17.70;99.90;;;;;;5112865;28;20044;-70
2023/04/19 11:22:39;;;;;;;3.75;0.90;;;17.40;99.90;;;;;;5098024;28;20115;-73
2023/04/19 11:25:05;;;;;;;6.20;1.00;;;17.50;99.90;;;;;;5097657;28;20036;-72
2023/04/19 11:27:37;;;;;;;1.67;0.70;;;17.70;99.90;;;;;;5097424;28;20048;-71
2023/04/19 11:30:12;;;;;;;3.30;1.15;;;17.50;99.90;;;;;;5092983;28;20111;-71
2023/04/19 11:32:43;;;;;;;3.78;1.00;;;17.20;99.90;;;;;;5076700;28;20051;-71
2023/04/19 11:35:09;;;;;;;4.20;1.20;;;17.20;99.90;;;;;;5094686;28;20083;-71
2023/04/19 11:37:36;;;;;;;2.45;1.30;;;17.40;99.90;;;;;;5096922;28;20075;-72
2023/04/19 11:40:03;;;;;;;4.35;1.40;;;17.20;99.90;;;;;;5097760;28;20044;-72
2023/04/19 11:42:29;;;;;;;2.28;1.20;;;17.20;99.90;;;;;;5097697;28;20371;-71
2023/04/19 11:44:57;;;;;;;4.07;1.38;;;17.40;99.90;;;;;;5097889;28;20294;-71
2023/04/19 11:47:23;;;;;;;4.70;1.45;;;17.10;99.90;;;;;;5097610;28;20040;-72
2023/04/19 11:49:49;;;;;;;4.47;1.60;;;17.30;99.90;;;;;;5097256;28;20478;-71
2023/04/19 11:52:22;;;;;;;2.30;1.58;;;17.70;99.90;;;;;;5097238;28;20111;-71
2023/04/19 11:54:49;;;;;;;3.47;1.58;;;17.90;99.90;;;;;;5097458;28;20040;-71
2023/04/19 11:57:25;;;;;;;4.68;1.60;;;18.20;99.90;;;;;;5097727;28;20040;-72
2023/04/19 12:00:10;;;;;;;2.95;1.63;;;18.40;99.90;;;;;;5097453;28;20093;-72
2023/04/19 12:02:38;;;;;;;3.92;2.08;;;18.60;99.90;;;;;;5097269;28;20040;-72
2023/04/19 12:05:12;;;;;;;3.95;1.75;;;18.50;99.90;;;;;;5097329;28;20173;-72
2023/04/19 12:07:59;;;;;;;2.05;1.60;;;18.40;99.90;;;;;;5096922;28;20448;-72
2023/04/19 12:10:25;;;;;;;2.90;2.10;;;18.40;99.90;;;;;;5097261;28;20036;-72
2023/04/19 12:12:51;;;;;;;4.85;2.03;;;18.70;99.90;;;;;;5096824;28;20422;-71
2023/04/19 12:15:16;;;;;;;4.53;1.90;;;18.90;99.90;;;;;;5096842;28;20064;-71
2023/04/19 12:17:59;;;;;;;3.65;2.00;;;19.00;99.90;;;;;;5097043;28;20406;-71
2023/04/19 12:20:36;;;;;;;3.58;2.08;;;19.20;99.90;;;;;;5095797;28;20032;-70
2023/04/19 12:23:02;;;;;;;3.70;1.95;;;19.30;99.90;;;;;;5097032;28;20047;-70
2023/04/19 12:25:32;;;;;;;5.72;1.67;;;19.40;99.90;;;;;;5097504;28;20051;-70
2023/04/19 12:27:59;;;;;;;5.15;2.00;;;19.50;99.90;;;;;;5095674;28;20060;-70
2023/04/19 12:30:26;;;;;;;5.22;1.63;;;19.70;99.90;;;;;;5096977;28;20051;-70
2023/04/19 12:32:54;;;;;;;3.50;1.88;;;19.50;99.90;;;;;;5096555;28;20054;-70
2023/04/19 12:35:25;;;;;;;2.15;1.58;;;19.60;99.90;;;;;;5095736;28;20111;-70
2023/04/19 12:37:52;;;;;;;3.33;1.70;;;19.90;99.90;;;;;;5096573;28;20428;-70
2023/04/19 12:40:19;;;;;;;3.50;1.65;;;19.80;99.90;;;;;;5096834;28;20036;-70
2023/04/19 12:42:44;;;;;;;9.90;1.55;;;19.60;99.90;;;;;;5096848;28;20044;-70
2023/04/19 12:45:11;;;;;;;4.78;2.10;;;19.10;99.90;;;;;;5095728;28;20039;-70
2023/04/19 12:47:37;;;;;;;4.13;2.00;;;19.10;99.90;;;;;;5096845;28;20090;-70